Aérodrome :
LOGIN :

S'inscrire | Disclaimer

   EN    FR    IT 

 










Légende :    VFR   VFR Marginal   IFR   IFR Intensif   IFR Très Intensif
Visi : 
Plafond : 
>= 8 km
>= 3000ft
5 à 8 km
1000 à 3000 ft
1500m à 5 km
500 à 1000 ft
800 à 1500m
200 à 500 ft
< 800m
< 200 ft
Symboles :   Orages  Brouillard  Fortes neiges  Fortes précipitations  Vent > 20 kt
SIGMETs :   Divers  Orages  Givrage  Turbulence  Onde Orograph.  Cendres Volcan.






- Altitude de l'aérodrome : 370 ft


EBBE - Beauvechain AB

DERNIER METAR :
  • 211355Z 09003KT 9000 SCT100 BKN220 05/03 Q1006 BLU BLU TEMPO WHT

METARs EXPIRÉS :
  • 211325Z 09004KT 9000 SCT100 BKN220 04/03 Q1005 BLU BLU TEMPO WHT
  • 211255Z 08004KT 9000 SCT100 BKN220 04/02 Q1006 BLU BLU TEMPO WHT
  • 211225Z 09003KT 8000 FEW009 BKN220 03/02 Q1006 BLU BLU TEMPO WHT
  • 211155Z 08005KT 8000 FEW009 BKN220 03/02 Q1006 BLU BLU TEMPO WHT
  • 211152Z 08005KT 8000 FEW009 BKN220 03/01 Q1006 BLU BLU TEMPO WHT
  • 211125Z 10005KT 7000 SCT009 BKN220 02/01 Q1007 GRN GRN BECMG BLU
  • 211112Z 09004KT 7000 SCT007 SCT009 BKN220 02/00 Q1007 GRN GRN BECMG BLU
  • 211055Z 09004KT 6000 SCT007 BKN009 01/00 Q1007 GRN GRN TEMPO YLO

TAF TAF EBBE
Valide du 21 à 13h jusqu'au 21 à 22h UTC


211141Z 2113/2122 11006KT 9999 FEW010 SCT080 BKN250
BECMG 2113/2115 15005KT



MET'MAP, la Météo Aéronautique d'un coup d'oeil ! - Copyright ORBIFLY Décembre 2007 - Disclaimer

ORBIFLY MET'MAP TEAM :

Programmation & Développement : Alexandra Zaïnal
Conception & Développement : Baudouin d'Aumeries
Co-Programmation & Développement : Marc-Olivier Méhu
Soutien technique & logistique : Manuel Goepfert

Contact : metmap@orbifly.com




SOURCES & CREDITS :

   NOAA